Time;durP1;ratioP1;P1;durP2;ratioP2;P2;SDS_P1;SDS_P2;PMS_P1;PMS_P2;Temp;Humidity;BMP_temperature;BMP_pressure;BME280_temperature;BME280_humidity;BME280_pressure;Samples;Min_cycle;Max_cycle;Signal;HPM_P1;HPM_P2
2023/07/13 00:01:55;;;;;;;17.55;9.65;;;;;;;;;;5076928;28;20210;-35
2023/07/13 00:04:24;;;;;;;15.40;8.98;;;;;;;;;;5076656;28;20211;-34
2023/07/13 00:06:53;;;;;;;17.23;9.73;;;;;;;;;;5076953;28;20652;-34
2023/07/13 00:09:21;;;;;;;21.02;9.40;;;;;;;;;;5076826;28;20230;-34
2023/07/13 00:11:56;;;;;;;19.83;10.18;;;;;;;;;;5076742;28;20207;-34
2023/07/13 00:14:24;;;;;;;18.63;9.73;;;;;;;;;;5076599;28;20195;-35
2023/07/13 00:16:52;;;;;;;14.85;10.00;;;;;;;;;;5076951;28;20207;-34
2023/07/13 00:19:19;;;;;;;17.08;9.45;;;;;;;;;;5076554;28;20195;-35
2023/07/13 00:21:47;;;;;;;19.23;9.25;;;;;;;;;;5076273;28;20680;-34
2023/07/13 00:24:16;;;;;;;18.95;9.48;;;;;;;;;;5076260;28;20229;-35
2023/07/13 00:26:46;;;;;;;19.67;10.07;;;;;;;;;;5076748;28;20208;-34
2023/07/13 00:29:14;;;;;;;16.25;8.57;;;;;;;;;;5076399;28;20210;-35
2023/07/13 00:31:42;;;;;;;19.92;9.82;;;;;;;;;;5076267;28;20195;-34
2023/07/13 00:34:09;;;;;;;21.30;8.95;;;;;;;;;;5053883;28;20224;-35
2023/07/13 00:36:36;;;;;;;18.77;9.20;;;;;;;;;;5056341;28;20203;-35
2023/07/13 00:39:04;;;;;;;21.85;8.82;;;;;;;;;;5053220;28;20208;-35
2023/07/13 00:41:31;;;;;;;17.42;8.20;;;;;;;;;;5036163;28;20197;-34
2023/07/13 00:43:58;;;;;;;14.00;8.15;;;;;;;;;;5036016;28;20607;-35
2023/07/13 00:46:30;;;;;;;14.65;8.68;;;;;;;;;;5002026;28;20666;-35
2023/07/13 00:49:03;;;;;;;20.80;7.88;;;;;;;;;;5018470;28;20204;-35
2023/07/13 00:51:40;;;;;;;16.25;8.57;;;;;;;;;;5018579;28;20197;-35
2023/07/13 00:54:11;;;;;;;15.55;7.90;;;;;;;;;;5018288;28;20227;-34
2023/07/13 00:56:41;;;;;;;16.08;7.72;;;;;;;;;;5018765;28;20220;-35
2023/07/13 00:59:08;;;;;;;14.00;7.53;;;;;;;;;;5018613;28;20212;-34
2023/07/13 01:01:36;;;;;;;17.55;7.40;;;;;;;;;;5018266;28;20213;-34
2023/07/13 01:04:07;;;;;;;15.98;7.28;;;;;;;;;;5035930;28;20235;-34
2023/07/13 01:06:39;;;;;;;14.40;7.57;;;;;;;;;;5018300;28;20284;-34
2023/07/13 01:09:08;;;;;;;17.95;7.78;;;;;;;;;;5018541;28;20212;-35
2023/07/13 01:11:35;;;;;;;16.30;7.57;;;;;;;;;;5017973;28;20200;-35
2023/07/13 01:14:03;;;;;;;18.02;7.13;;;;;;;;;;5001890;28;20219;-35
2023/07/13 01:16:32;;;;;;;22.80;7.45;;;;;;;;;;5035468;28;20205;-35
2023/07/13 01:19:01;;;;;;;15.27;8.15;;;;;;;;;;5035409;28;20255;-35
2023/07/13 01:21:29;;;;;;;14.52;7.13;;;;;;;;;;5017992;28;20197;-34
2023/07/13 01:23:59;;;;;;;16.23;8.27;;;;;;;;;;5035399;28;20229;-34
2023/07/13 01:26:26;;;;;;;11.52;7.82;;;;;;;;;;5035140;28;20219;-35
2023/07/13 01:28:56;;;;;;;16.25;7.88;;;;;;;;;;5017812;28;20200;-35
2023/07/13 01:31:23;;;;;;;15.88;7.57;;;;;;;;;;5035415;28;20225;-35
2023/07/13 01:33:51;;;;;;;21.02;8.10;;;;;;;;;;5034825;28;20244;-36
2023/07/13 01:36:21;;;;;;;17.30;7.85;;;;;;;;;;5017382;28;20615;-35
2023/07/13 01:38:48;;;;;;;13.80;7.60;;;;;;;;;;5017529;28;20219;-35
2023/07/13 01:41:15;;;;;;;19.52;8.25;;;;;;;;;;5035182;28;20201;-35
2023/07/13 01:43:42;;;;;;;19.55;8.05;;;;;;;;;;5034963;28;20362;-34
2023/07/13 01:46:09;;;;;;;18.05;8.02;;;;;;;;;;5034915;28;20288;-34
2023/07/13 01:48:51;;;;;;;15.27;8.38;;;;;;;;;;5017207;28;20203;-34
2023/07/13 01:51:19;;;;;;;24.30;8.70;;;;;;;;;;5034516;28;20205;-34
2023/07/13 01:53:46;;;;;;;24.33;8.90;;;;;;;;;;5034724;28;20213;-35
2023/07/13 01:56:13;;;;;;;19.20;9.18;;;;;;;;;;5034427;28;20287;-34
2023/07/13 01:58:41;;;;;;;22.45;9.52;;;;;;;;;;5016893;28;20216;-35
2023/07/13 02:01:08;;;;;;;22.95;9.75;;;;;;;;;;5034405;28;20231;-35
2023/07/13 02:03:35;;;;;;;22.38;9.05;;;;;;;;;;5034514;28;20253;-34
2023/07/13 02:06:02;;;;;;;21.08;8.57;;;;;;;;;;5033367;28;20832;-35
2023/07/13 02:08:32;;;;;;;17.17;8.40;;;;;;;;;;5016915;28;20192;-34
2023/07/13 02:10:59;;;;;;;19.50;7.85;;;;;;;;;;5034335;28;20212;-35
2023/07/13 02:13:27;;;;;;;27.35;8.43;;;;;;;;;;5034279;28;20212;-35
2023/07/13 02:15:54;;;;;;;23.05;8.52;;;;;;;;;;5034043;28;20287;-34
2023/07/13 02:18:22;;;;;;;20.40;8.48;;;;;;;;;;5016489;28;20200;-35
2023/07/13 02:20:49;;;;;;;22.58;8.57;;;;;;;;;;5033965;28;20200;-35
2023/07/13 02:23:16;;;;;;;14.45;8.32;;;;;;;;;;5033816;28;20224;-35
2023/07/13 02:25:46;;;;;;;21.25;9.13;;;;;;;;;;5034136;28;20211;-34
2023/07/13 02:28:15;;;;;;;16.80;8.35;;;;;;;;;;5016391;28;20201;-35
2023/07/13 02:30:42;;;;;;;13.48;8.70;;;;;;;;;;5016199;28;20201;-35
2023/07/13 02:33:10;;;;;;;14.57;8.48;;;;;;;;;;5033679;28;20287;-35
2023/07/13 02:35:37;;;;;;;24.33;8.32;;;;;;;;;;5033966;28;20201;-36
2023/07/13 02:38:04;;;;;;;14.45;8.30;;;;;;;;;;5016376;28;20205;-34
2023/07/13 02:40:33;;;;;;;24.05;9.10;;;;;;;;;;5016209;28;20215;-34
2023/07/13 02:43:00;;;;;;;18.92;8.45;;;;;;;;;;5033485;28;20228;-35
2023/07/13 02:45:30;;;;;;;14.40;8.50;;;;;;;;;;5033561;28;20203;-35
2023/07/13 02:47:58;;;;;;;12.32;7.72;;;;;;;;;;5033535;28;20652;-35
2023/07/13 02:50:25;;;;;;;16.45;8.52;;;;;;;;;;5033824;28;20207;-35
2023/07/13 02:52:53;;;;;;;19.25;8.73;;;;;;;;;;5016411;28;20227;-34
2023/07/13 02:55:20;;;;;;;15.93;8.20;;;;;;;;;;5033059;28;20227;-34
2023/07/13 02:57:47;;;;;;;16.50;8.57;;;;;;;;;;5014467;28;20258;-34
2023/07/13 03:00:16;;;;;;;17.42;8.15;;;;;;;;;;5032168;28;20230;-36
2023/07/13 03:02:43;;;;;;;21.55;8.55;;;;;;;;;;5032395;28;20204;-36
2023/07/13 03:05:12;;;;;;;13.35;7.30;;;;;;;;;;5033373;28;20216;-34
2023/07/13 03:07:42;;;;;;;16.88;7.63;;;;;;;;;;5016123;28;20204;-35
2023/07/13 03:10:10;;;;;;;21.48;7.80;;;;;;;;;;5016007;28;20205;-37
2023/07/13 03:12:43;;;;;;;16.95;8.15;;;;;;;;;;5015872;28;20208;-34
2023/07/13 03:15:19;;;;;;;17.77;8.07;;;;;;;;;;5015950;28;20246;-35
2023/07/13 03:17:48;;;;;;;20.70;8.82;;;;;;;;;;5015764;28;20201;-34
2023/07/13 03:20:16;;;;;;;15.70;8.85;;;;;;;;;;5016007;28;20197;-34
2023/07/13 03:22:44;;;;;;;17.63;8.88;;;;;;;;;;5015705;28;20208;-34
2023/07/13 03:25:12;;;;;;;18.25;10.43;;;;;;;;;;5015561;28;20220;-34
2023/07/13 03:27:39;;;;;;;20.90;8.98;;;;;;;;;;5015914;28;20201;-34
2023/07/13 03:30:09;;;;;;;21.13;8.70;;;;;;;;;;5015761;28;20209;-34
2023/07/13 03:32:36;;;;;;;13.52;8.63;;;;;;;;;;5015351;28;20290;-34
2023/07/13 03:35:05;;;;;;;17.70;7.90;;;;;;;;;;5040125;28;20216;-36
2023/07/13 03:37:32;;;;;;;25.63;8.65;;;;;;;;;;5037582;28;20200;-35
2023/07/13 03:39:59;;;;;;;13.38;8.07;;;;;;;;;;5033060;28;20259;-35
2023/07/13 03:42:29;;;;;;;14.68;8.38;;;;;;;;;;5015488;28;20201;-35
2023/07/13 03:44:56;;;;;;;12.32;8.43;;;;;;;;;;5033033;28;20752;-36
2023/07/13 03:47:23;;;;;;;17.77;9.05;;;;;;;;;;5043106;28;20844;-36
2023/07/13 03:49:51;;;;;;;13.93;8.50;;;;;;;;;;5035231;28;20680;-35
2023/07/13 03:52:18;;;;;;;23.98;9.48;;;;;;;;;;5035605;28;20207;-35
2023/07/13 03:54:45;;;;;;;16.08;8.65;;;;;;;;;;5035510;28;20204;-35
2023/07/13 03:57:12;;;;;;;17.42;9.48;;;;;;;;;;5046859;28;20196;-35
2023/07/13 03:59:40;;;;;;;17.35;9.98;;;;;;;;;;5022167;28;20205;-35
2023/07/13 04:02:08;;;;;;;14.30;8.75;;;;;;;;;;5019624;28;20646;-35
2023/07/13 04:04:35;;;;;;;21.25;9.23;;;;;;;;;;5026111;28;20224;-36
2023/07/13 04:07:03;;;;;;;18.33;10.32;;;;;;;;;;5052639;28;20208;-35
2023/07/13 04:09:30;;;;;;;17.40;10.50;;;;;;;;;;5031734;28;20274;-35
2023/07/13 04:11:57;;;;;;;21.05;11.40;;;;;;;;;;5033976;28;20583;-35
2023/07/13 04:14:27;;;;;;;17.45;11.32;;;;;;;;;;5034298;28;20228;-35
2023/07/13 04:16:54;;;;;;;18.25;11.50;;;;;;;;;;5051680;28;20227;-37
2023/07/13 04:19:22;;;;;;;21.25;11.48;;;;;;;;;;5039152;28;20240;-35
2023/07/13 04:21:49;;;;;;;20.13;12.75;;;;;;;;;;5052205;28;20220;-37
2023/07/13 04:24:17;;;;;;;19.45;11.77;;;;;;;;;;5038866;28;20270;-36
2023/07/13 04:26:44;;;;;;;22.85;12.57;;;;;;;;;;5050587;28;20591;-35
2023/07/13 04:29:11;;;;;;;23.48;12.13;;;;;;;;;;5043379;28;20223;-35
2023/07/13 04:31:38;;;;;;;19.27;12.52;;;;;;;;;;5055429;28;20216;-35
2023/07/13 04:34:06;;;;;;;21.27;12.30;;;;;;;;;;5055184;28;20240;-35
2023/07/13 04:36:37;;;;;;;19.17;12.20;;;;;;;;;;5055417;28;20771;-35
2023/07/13 04:39:05;;;;;;;23.75;12.35;;;;;;;;;;5055157;28;20219;-35
2023/07/13 04:41:31;;;;;;;16.83;11.65;;;;;;;;;;5055357;28;20220;-35
2023/07/13 04:43:59;;;;;;;23.08;11.65;;;;;;;;;;5055123;28;20239;-35
2023/07/13 04:46:26;;;;;;;18.83;12.02;;;;;;;;;;5055433;28;20645;-35
2023/07/13 04:48:54;;;;;;;19.45;12.48;;;;;;;;;;5055327;28;20227;-35
2023/07/13 04:51:21;;;;;;;24.65;12.88;;;;;;;;;;5055220;28;20318;-35
2023/07/13 04:53:48;;;;;;;21.42;13.13;;;;;;;;;;5053366;28;20223;-35
2023/07/13 04:56:19;;;;;;;18.83;13.15;;;;;;;;;;5055180;28;20247;-35
2023/07/13 04:58:46;;;;;;;17.20;11.82;;;;;;;;;;5055145;28;20219;-35
2023/07/13 05:01:14;;;;;;;21.15;11.90;;;;;;;;;;5046256;28;20240;-35
2023/07/13 05:03:41;;;;;;;20.70;11.73;;;;;;;;;;5055169;28;20356;-36
2023/07/13 05:06:13;;;;;;;17.00;11.50;;;;;;;;;;5054826;28;20282;-34
2023/07/13 05:08:41;;;;;;;16.05;10.85;;;;;;;;;;5051325;28;20224;-34
2023/07/13 05:11:08;;;;;;;18.00;10.77;;;;;;;;;;5054591;28;20220;-34
2023/07/13 05:13:35;;;;;;;16.70;10.70;;;;;;;;;;5054830;28;20219;-35
2023/07/13 05:16:07;;;;;;;16.77;10.02;;;;;;;;;;5054633;28;20311;-34
2023/07/13 05:18:35;;;;;;;15.40;10.07;;;;;;;;;;5055119;28;20223;-34
2023/07/13 05:21:07;;;;;;;12.48;10.00;;;;;;;;;;5053775;28;20684;-34
2023/07/13 05:23:35;;;;;;;14.60;10.15;;;;;;;;;;5054407;28;20228;-34
2023/07/13 05:26:03;;;;;;;16.50;9.52;;;;;;;;;;5053635;28;20231;-35
2023/07/13 05:28:35;;;;;;;15.68;10.60;;;;;;;;;;5054249;28;20228;-34
2023/07/13 05:31:04;;;;;;;15.05;9.95;;;;;;;;;;5054189;28;20230;-34
2023/07/13 05:33:31;;;;;;;19.67;10.05;;;;;;;;;;5054522;28;20295;-34
2023/07/13 05:36:00;;;;;;;12.52;8.75;;;;;;;;;;5053827;28;20220;-36
2023/07/13 05:38:28;;;;;;;13.07;8.77;;;;;;;;;;5054037;28;20591;-35
2023/07/13 05:40:56;;;;;;;17.58;8.65;;;;;;;;;;5054011;28;20232;-35
2023/07/13 05:43:23;;;;;;;13.05;9.02;;;;;;;;;;5053982;28;20228;-35
2023/07/13 05:45:56;;;;;;;13.05;8.65;;;;;;;;;;5054220;28;20239;-36
2023/07/13 05:48:23;;;;;;;14.65;9.45;;;;;;;;;;5054018;28;20227;-35
2023/07/13 05:50:50;;;;;;;18.63;9.75;;;;;;;;;;5053766;28;20701;-36
2023/07/13 05:53:18;;;;;;;14.55;9.25;;;;;;;;;;5053170;28;20227;-35
2023/07/13 05:55:52;;;;;;;12.65;9.45;;;;;;;;;;5050972;28;20220;-35
2023/07/13 05:58:20;;;;;;;12.57;8.57;;;;;;;;;;5043480;28;20274;-35
2023/07/13 06:00:48;;;;;;;13.38;9.10;;;;;;;;;;5043827;28;20198;-35
2023/07/13 06:03:15;;;;;;;12.68;9.00;;;;;;;;;;5044977;28;20565;-34
2023/07/13 06:05:42;;;;;;;12.23;8.35;;;;;;;;;;5043995;28;20642;-35
2023/07/13 06:08:10;;;;;;;15.80;9.10;;;;;;;;;;5043096;28;20671;-34
2023/07/13 06:10:37;;;;;;;13.85;8.75;;;;;;;;;;5043352;28;20192;-36
2023/07/13 06:13:04;;;;;;;14.32;8.57;;;;;;;;;;5043810;28;20196;-35
2023/07/13 06:15:32;;;;;;;12.48;8.77;;;;;;;;;;5044685;28;20212;-36
2023/07/13 06:17:59;;;;;;;14.07;9.15;;;;;;;;;;5043231;28;20251;-35
2023/07/13 06:20:26;;;;;;;12.52;8.60;;;;;;;;;;5043696;28;20283;-35
2023/07/13 06:22:54;;;;;;;14.68;8.98;;;;;;;;;;5045045;28;20294;-36
2023/07/13 06:25:21;;;;;;;12.30;9.10;;;;;;;;;;5043341;28;20275;-34
2023/07/13 06:27:48;;;;;;;13.73;9.48;;;;;;;;;;5043313;28;20199;-35
2023/07/13 06:30:15;;;;;;;12.93;9.30;;;;;;;;;;5045144;28;20201;-34
2023/07/13 06:32:43;;;;;;;12.20;8.75;;;;;;;;;;5043309;28;20236;-35
2023/07/13 06:35:12;;;;;;;13.68;8.55;;;;;;;;;;5042515;28;20605;-34
2023/07/13 06:37:40;;;;;;;11.35;8.63;;;;;;;;;;5043056;28;20197;-35
2023/07/13 06:40:07;;;;;;;13.00;8.93;;;;;;;;;;5043136;28;20283;-35
2023/07/13 06:42:34;;;;;;;12.93;8.52;;;;;;;;;;5044785;28;20239;-34
2023/07/13 06:45:02;;;;;;;11.93;8.27;;;;;;;;;;5042994;28;20235;-35
2023/07/13 06:47:29;;;;;;;11.35;8.02;;;;;;;;;;5042440;28;20543;-35
2023/07/13 06:50:00;;;;;;;18.05;8.60;;;;;;;;;;5026144;28;20189;-35
2023/07/13 06:52:27;;;;;;;12.88;8.45;;;;;;;;;;5040618;28;20545;-35
2023/07/13 06:54:54;;;;;;;15.15;9.25;;;;;;;;;;5043474;28;20204;-35
2023/07/13 06:57:22;;;;;;;13.10;8.68;;;;;;;;;;5044179;28;20196;-36
2023/07/13 06:59:49;;;;;;;12.02;8.52;;;;;;;;;;5042535;28;20283;-35
2023/07/13 07:02:16;;;;;;;14.70;9.27;;;;;;;;;;5043082;28;20204;-35
2023/07/13 07:04:43;;;;;;;10.73;7.78;;;;;;;;;;5044155;28;20246;-35
2023/07/13 07:07:11;;;;;;;12.10;8.15;;;;;;;;;;5042412;28;20196;-35
2023/07/13 07:09:38;;;;;;;10.07;7.32;;;;;;;;;;5042603;28;20196;-36
2023/07/13 07:12:05;;;;;;;12.32;8.05;;;;;;;;;;5043784;28;20196;-37
2023/07/13 07:14:34;;;;;;;11.57;7.63;;;;;;;;;;5042829;28;20204;-35
2023/07/13 07:17:01;;;;;;;10.27;7.07;;;;;;;;;;5042095;28;20204;-35
2023/07/13 07:19:30;;;;;;;10.48;7.75;;;;;;;;;;5050952;28;20221;-35
2023/07/13 07:21:57;;;;;;;11.68;7.38;;;;;;;;;;5039768;28;20193;-36
2023/07/13 07:24:24;;;;;;;9.82;7.15;;;;;;;;;;5041724;28;20220;-36
2023/07/13 07:26:52;;;;;;;10.43;6.90;;;;;;;;;;5041300;28;20219;-36
2023/07/13 07:29:22;;;;;;;11.45;7.13;;;;;;;;;;5025019;28;20706;-37
2023/07/13 07:31:53;;;;;;;11.48;6.80;;;;;;;;;;5050710;28;20208;-36
2023/07/13 07:34:23;;;;;;;10.88;6.97;;;;;;;;;;5040784;28;20255;-38
2023/07/13 07:36:50;;;;;;;13.68;7.25;;;;;;;;;;5044730;28;20250;-37
2023/07/13 07:39:20;;;;;;;11.07;6.82;;;;;;;;;;5032240;28;20192;-36
2023/07/13 07:41:47;;;;;;;8.23;6.20;;;;;;;;;;5031992;28;20189;-37
2023/07/13 07:44:17;;;;;;;13.48;6.72;;;;;;;;;;5035818;28;20201;-37
2023/07/13 07:46:45;;;;;;;8.98;6.50;;;;;;;;;;5035403;28;20252;-37
2023/07/13 08:00:51;;;;;;;9.50;6.15;;;;;;;;;;5089237;27;20759;-43
2023/07/13 08:03:21;;;;;;;8.07;5.90;;;;;;;;;;5088956;28;20191;-42
2023/07/13 08:05:54;;;;;;;7.90;6.10;;;;;;;;;;5087208;28;20229;-44
2023/07/13 08:08:25;;;;;;;8.48;5.78;;;;;;;;;;5089124;28;20218;-43
2023/07/13 08:10:53;;;;;;;8.15;5.68;;;;;;;;;;5089684;28;20210;-44
2023/07/13 08:13:25;;;;;;;7.38;5.30;;;;;;;;;;5089892;28;20215;-42
2023/07/13 08:15:52;;;;;;;8.43;5.63;;;;;;;;;;5089996;28;20204;-41
2023/07/13 08:18:20;;;;;;;7.45;5.22;;;;;;;;;;5089166;28;20221;-42
2023/07/13 08:20:47;;;;;;;9.73;5.88;;;;;;;;;;5089226;28;20654;-42
2023/07/13 08:23:16;;;;;;;10.18;5.30;;;;;;;;;;5088992;28;20214;-42
2023/07/13 08:25:53;;;;;;;7.00;5.47;;;;;;;;;;5089499;28;20269;-41
2023/07/13 08:28:23;;;;;;;6.70;5.38;;;;;;;;;;5087049;28;20195;-43
2023/07/13 08:30:50;;;;;;;7.38;5.20;;;;;;;;;;5089049;28;20651;-43
2023/07/13 08:33:19;;;;;;;8.98;6.15;;;;;;;;;;5089445;28;20202;-40
2023/07/13 08:35:50;;;;;;;10.60;5.68;;;;;;;;;;5089482;28;20195;-42
2023/07/13 08:38:18;;;;;;;7.38;5.45;;;;;;;;;;5087120;28;20195;-44
2023/07/13 08:40:50;;;;;;;8.35;6.03;;;;;;;;;;5088792;28;20716;-44
2023/07/13 08:43:23;;;;;;;7.63;5.50;;;;;;;;;;5087212;28;20241;-43
2023/07/13 08:45:54;;;;;;;8.93;5.50;;;;;;;;;;5088281;28;20210;-43
2023/07/13 08:48:27;;;;;;;9.60;5.97;;;;;;;;;;5089248;28;20203;-43
2023/07/13 08:50:57;;;;;;;8.02;5.65;;;;;;;;;;5086788;28;20240;-44
2023/07/13 08:53:36;;;;;;;7.90;5.53;;;;;;;;;;5089089;28;20202;-44
2023/07/13 08:56:07;;;;;;;8.55;5.68;;;;;;;;;;5088186;28;20604;-41
2023/07/13 08:58:34;;;;;;;6.93;5.20;;;;;;;;;;5085419;28;20190;-43
2023/07/13 09:01:16;;;;;;;6.80;5.18;;;;;;;;;;5080829;28;20192;-44
2023/07/13 09:03:56;;;;;;;7.65;5.25;;;;;;;;;;5076162;28;20187;-43
2023/07/13 09:06:29;;;;;;;6.18;4.97;;;;;;;;;;5075096;28;20187;-41
2023/07/13 09:09:04;;;;;;;6.55;4.95;;;;;;;;;;5059478;28;20216;-42
2023/07/13 09:11:45;;;;;;;7.00;5.03;;;;;;;;;;5074675;28;20191;-41
2023/07/13 09:14:37;;;;;;;7.30;4.95;;;;;;;;;;5054689;28;20196;-44
2023/07/13 09:17:10;;;;;;;7.45;4.45;;;;;;;;;;5069085;28;20191;-44
2023/07/13 09:19:37;;;;;;;7.22;4.55;;;;;;;;;;5074270;28;20192;-42
2023/07/13 09:22:11;;;;;;;5.82;4.00;;;;;;;;;;5074675;28;20203;-41
2023/07/13 09:24:46;;;;;;;4.85;3.78;;;;;;;;;;5074817;28;20184;-41
2023/07/13 09:27:17;;;;;;;4.22;3.45;;;;;;;;;;5074835;28;20309;-42
2023/07/13 09:29:51;;;;;;;4.28;3.20;;;;;;;;;;5074375;28;20250;-42
2023/07/13 09:32:21;;;;;;;4.20;3.00;;;;;;;;;;5074263;28;20200;-42
2023/07/13 09:34:54;;;;;;;5.90;3.42;;;;;;;;;;5074349;28;20206;-42
2023/07/13 09:37:27;;;;;;;4.75;3.20;;;;;;;;;;5076038;28;20290;-42
2023/07/13 09:39:55;;;;;;;4.55;2.92;;;;;;;;;;5074564;28;20199;-42
2023/07/13 09:42:23;;;;;;;4.45;2.85;;;;;;;;;;5074245;28;20662;-41
2023/07/13 09:45:05;;;;;;;4.18;2.50;;;;;;;;;;5075638;28;20210;-42
2023/07/13 09:47:39;;;;;;;7.88;3.03;;;;;;;;;;5075548;28;20195;-41
2023/07/13 09:50:10;;;;;;;5.70;2.90;;;;;;;;;;5075168;28;20695;-42
2023/07/13 09:52:45;;;;;;;3.85;2.80;;;;;;;;;;5073679;28;20573;-42
2023/07/13 09:55:37;;;;;;;4.70;3.20;;;;;;;;;;5066498;28;20639;-42
2023/07/13 09:58:12;;;;;;;5.13;3.13;;;;;;;;;;5072079;28;20210;-41
2023/07/13 10:00:40;;;;;;;4.25;2.95;;;;;;;;;;5073375;28;20226;-42
2023/07/13 10:03:22;;;;;;;3.05;2.67;;;;;;;;;;5074838;28;20242;-43
2023/07/13 10:05:51;;;;;;;5.72;3.30;;;;;;;;;;5073249;28;20187;-43
2023/07/13 10:08:24;;;;;;;4.85;3.30;;;;;;;;;;5073820;28;20324;-43
2023/07/13 10:10:57;;;;;;;4.32;3.10;;;;;;;;;;5071929;28;20208;-43
2023/07/13 10:13:34;;;;;;;7.55;3.13;;;;;;;;;;5073621;28;20188;-43
2023/07/13 10:16:02;;;;;;;4.03;3.08;;;;;;;;;;5072090;28;20237;-44
2023/07/13 10:18:34;;;;;;;4.22;2.97;;;;;;;;;;5071601;28;20595;-44
2023/07/13 10:21:15;;;;;;;3.90;2.90;;;;;;;;;;5071604;28;20636;-43
2023/07/13 10:23:58;;;;;;;5.32;3.00;;;;;;;;;;5071515;28;20192;-44
2023/07/13 10:26:30;;;;;;;4.20;3.28;;;;;;;;;;5069926;28;20187;-44
2023/07/13 10:29:00;;;;;;;3.90;3.05;;;;;;;;;;5073273;28;20265;-44
2023/07/13 10:31:30;;;;;;;3.65;2.60;;;;;;;;;;5072461;28;20184;-44
2023/07/13 10:33:57;;;;;;;4.47;2.83;;;;;;;;;;5071764;28;20257;-44
2023/07/13 10:36:28;;;;;;;4.00;2.90;;;;;;;;;;5072412;28;20203;-42
2023/07/13 10:38:57;;;;;;;3.40;2.88;;;;;;;;;;5072699;28;20577;-43
2023/07/13 10:41:26;;;;;;;4.05;2.80;;;;;;;;;;5072098;28;20210;-44
2023/07/13 10:43:55;;;;;;;7.03;2.55;;;;;;;;;;5070670;28;20196;-43
2023/07/13 10:46:29;;;;;;;3.38;2.75;;;;;;;;;;5073509;28;20203;-42
2023/07/13 10:49:04;;;;;;;6.90;3.40;;;;;;;;;;5070804;28;20624;-43
2023/07/13 10:51:31;;;;;;;4.22;3.17;;;;;;;;;;5072455;28;20187;-42
2023/07/13 10:54:10;;;;;;;4.60;3.00;;;;;;;;;;5055669;28;20634;-43
2023/07/13 10:56:46;;;;;;;5.88;3.40;;;;;;;;;;5072248;28;20316;-44
2023/07/13 10:59:27;;;;;;;7.57;3.30;;;;;;;;;;5070079;28;20257;-42
2023/07/13 11:02:18;;;;;;;4.50;2.67;;;;;;;;;;5070988;28;20184;-43
2023/07/13 11:04:47;;;;;;;3.97;3.03;;;;;;;;;;5067686;28;20245;-42
2023/07/13 11:07:31;;;;;;;3.80;2.95;;;;;;;;;;5070917;28;20207;-42
2023/07/13 11:10:03;;;;;;;5.63;3.17;;;;;;;;;;5071093;28;20291;-43
2023/07/13 11:12:53;;;;;;;4.45;3.10;;;;;;;;;;5073344;28;20184;-42
2023/07/13 11:15:31;;;;;;;4.88;3.10;;;;;;;;;;5071075;28;20223;-42
2023/07/13 11:18:03;;;;;;;4.00;3.25;;;;;;;;;;5094887;28;20216;-41
2023/07/13 11:20:32;;;;;;;6.68;3.45;;;;;;;;;;5073236;28;20190;-43
2023/07/13 11:23:12;;;;;;;5.07;3.15;;;;;;;;;;5073230;28;20199;-42
2023/07/13 11:25:39;;;;;;;4.15;3.00;;;;;;;;;;5068357;28;20199;-44
2023/07/13 11:28:18;;;;;;;5.07;3.30;;;;;;;;;;5070474;28;20270;-43
2023/07/13 11:30:59;;;;;;;5.10;3.13;;;;;;;;;;5071884;28;20294;-43
2023/07/13 11:33:38;;;;;;;4.70;3.30;;;;;;;;;;5071809;28;20248;-43
2023/07/13 11:36:14;;;;;;;5.07;3.50;;;;;;;;;;5073290;28;20191;-43
2023/07/13 11:38:55;;;;;;;6.03;3.58;;;;;;;;;;5054636;28;20665;-43
2023/07/13 11:41:28;;;;;;;5.10;3.63;;;;;;;;;;5072676;28;20222;-44
2023/07/13 11:44:06;;;;;;;5.18;3.67;;;;;;;;;;5073323;28;20204;-44
2023/07/13 11:46:33;;;;;;;9.27;4.10;;;;;;;;;;5072728;28;20551;-43
2023/07/13 11:49:01;;;;;;;4.13;3.45;;;;;;;;;;5072735;28;20257;-44
2023/07/13 11:51:33;;;;;;;5.00;3.40;;;;;;;;;;5073033;28;20195;-43
2023/07/13 11:54:07;;;;;;;4.63;3.80;;;;;;;;;;5072548;28;20216;-45
2023/07/13 11:56:36;;;;;;;5.15;3.55;;;;;;;;;;5072768;28;20197;-43
2023/07/13 11:59:06;;;;;;;4.57;3.58;;;;;;;;;;5071774;28;20231;-45
2023/07/13 12:01:34;;;;;;;4.95;3.30;;;;;;;;;;5073072;28;20230;-43
2023/07/13 12:04:03;;;;;;;6.72;3.67;;;;;;;;;;5071676;28;20286;-44
2023/07/13 12:06:33;;;;;;;5.55;4.10;;;;;;;;;;5071736;28;20205;-43
2023/07/13 12:09:03;;;;;;;5.45;3.90;;;;;;;;;;5073009;28;20270;-44
2023/07/13 12:11:30;;;;;;;5.30;4.10;;;;;;;;;;5072785;28;20278;-43
2023/07/13 12:13:58;;;;;;;5.85;4.15;;;;;;;;;;5071696;28;20655;-43
2023/07/13 12:16:32;;;;;;;6.25;3.67;;;;;;;;;;5072526;28;20215;-43
2023/07/13 12:19:02;;;;;;;5.97;3.83;;;;;;;;;;5072901;28;20180;-45
2023/07/13 12:21:32;;;;;;;6.82;4.03;;;;;;;;;;5058172;28;20227;-42
2023/07/13 12:24:02;;;;;;;6.45;4.05;;;;;;;;;;5063349;28;20243;-45
2023/07/13 12:26:30;;;;;;;5.75;4.35;;;;;;;;;;5062602;28;20232;-43
2023/07/13 12:29:01;;;;;;;8.35;4.15;;;;;;;;;;5058756;28;20231;-44
2023/07/13 12:31:30;;;;;;;5.93;4.13;;;;;;;;;;5075097;28;20227;-43
2023/07/13 12:34:18;;;;;;;8.77;3.88;;;;;;;;;;5063543;28;20232;-43
2023/07/13 12:36:53;;;;;;;5.20;4.07;;;;;;;;;;5066423;28;20650;-44
2023/07/13 12:39:45;;;;;;;6.22;4.15;;;;;;;;;;5068847;28;20231;-42
2023/07/13 12:42:28;;;;;;;5.18;3.90;;;;;;;;;;5075538;28;20714;-42
2023/07/13 12:45:01;;;;;;;6.25;4.25;;;;;;;;;;5074573;28;20277;-43
2023/07/13 12:47:29;;;;;;;6.03;4.30;;;;;;;;;;5074099;28;20247;-43
2023/07/13 12:49:58;;;;;;;5.72;4.15;;;;;;;;;;5074541;28;20329;-43
2023/07/13 12:52:31;;;;;;;7.03;4.43;;;;;;;;;;5074324;28;20229;-44
2023/07/13 12:55:14;;;;;;;6.18;4.70;;;;;;;;;;5074034;28;20235;-41
2023/07/13 12:57:49;;;;;;;6.85;4.18;;;;;;;;;;5071304;28;20227;-43
2023/07/13 13:00:27;;;;;;;6.85;4.40;;;;;;;;;;5073904;28;20238;-42
2023/07/13 13:02:56;;;;;;;6.32;4.60;;;;;;;;;;5072461;28;20259;-43
2023/07/13 13:05:44;;;;;;;7.13;4.45;;;;;;;;;;5072537;28;20227;-45
2023/07/13 13:08:12;;;;;;;5.70;4.35;;;;;;;;;;5073327;28;20223;-42
2023/07/13 13:10:40;;;;;;;8.90;5.03;;;;;;;;;;5072041;28;20223;-44
2023/07/13 13:13:08;;;;;;;8.32;4.80;;;;;;;;;;5073060;28;20220;-43
2023/07/13 13:15:37;;;;;;;6.00;4.18;;;;;;;;;;5070817;28;20228;-43
2023/07/13 13:18:17;;;;;;;8.38;4.60;;;;;;;;;;5074381;28;20264;-43
2023/07/13 13:20:44;;;;;;;6.10;4.35;;;;;;;;;;5028152;28;20314;-44
2023/07/13 13:23:17;;;;;;;6.10;4.20;;;;;;;;;;5074666;28;20226;-43
2023/07/13 13:25:46;;;;;;;6.97;4.50;;;;;;;;;;5074450;28;20230;-44
2023/07/13 13:28:16;;;;;;;7.07;4.55;;;;;;;;;;5072480;28;20215;-42
2023/07/13 13:30:45;;;;;;;5.97;4.50;;;;;;;;;;5072036;28;20227;-44
2023/07/13 13:33:14;;;;;;;6.22;4.68;;;;;;;;;;5072309;28;20227;-43
2023/07/13 13:35:43;;;;;;;5.93;4.32;;;;;;;;;;5073341;28;20219;-44
2023/07/13 13:38:19;;;;;;;6.97;4.63;;;;;;;;;;5072816;28;20711;-43
2023/07/13 13:40:46;;;;;;;8.30;4.78;;;;;;;;;;5073424;28;20280;-44
2023/07/13 13:43:26;;;;;;;5.97;4.47;;;;;;;;;;5072836;28;20714;-41
2023/07/13 13:45:57;;;;;;;6.20;4.15;;;;;;;;;;5072331;28;20223;-43
2023/07/13 13:48:34;;;;;;;7.15;4.47;;;;;;;;;;5073131;28;20211;-43
2023/07/13 13:51:12;;;;;;;5.45;4.35;;;;;;;;;;5071406;28;20235;-43
2023/07/13 13:53:39;;;;;;;7.28;4.50;;;;;;;;;;5066350;28;20294;-44
2023/07/13 13:56:07;;;;;;;8.90;4.50;;;;;;;;;;5071928;28;20223;-45
2023/07/13 13:58:34;;;;;;;6.97;4.80;;;;;;;;;;5072860;28;20760;-43
2023/07/13 14:01:01;;;;;;;5.75;4.35;;;;;;;;;;5071200;28;20220;-42
2023/07/13 14:03:29;;;;;;;7.70;4.95;;;;;;;;;;5068810;28;20698;-42
2023/07/13 14:05:57;;;;;;;7.72;4.53;;;;;;;;;;5073244;28;20212;-42
2023/07/13 14:08:24;;;;;;;5.32;4.38;;;;;;;;;;5069895;28;20242;-42
2023/07/13 14:10:54;;;;;;;6.78;5.22;;;;;;;;;;5072257;28;20215;-44
2023/07/13 14:13:31;;;;;;;7.28;4.90;;;;;;;;;;5070627;28;20246;-44
2023/07/13 14:15:59;;;;;;;6.70;4.63;;;;;;;;;;5070525;28;20231;-42
2023/07/13 14:18:26;;;;;;;8.32;5.05;;;;;;;;;;5072014;28;20227;-44
2023/07/13 14:20:53;;;;;;;7.40;4.43;;;;;;;;;;5072831;28;20219;-42
2023/07/13 14:23:20;;;;;;;5.22;4.22;;;;;;;;;;5072728;28;20306;-41
2023/07/13 14:25:48;;;;;;;8.57;4.78;;;;;;;;;;5072890;28;20703;-42
2023/07/13 14:28:35;;;;;;;4.90;3.80;;;;;;;;;;5073033;28;20223;-42
2023/07/13 14:31:02;;;;;;;7.80;4.35;;;;;;;;;;5072232;28;20611;-43
2023/07/13 14:33:29;;;;;;;6.78;4.47;;;;;;;;;;5067897;28;20342;-42
2023/07/13 14:35:57;;;;;;;6.20;4.47;;;;;;;;;;5062145;28;20684;-42
2023/07/13 14:38:24;;;;;;;8.00;4.13;;;;;;;;;;5061117;28;20227;-42
2023/07/13 14:40:52;;;;;;;6.75;2.90;;;;;;;;;;5073209;28;20241;-41
2023/07/13 14:43:19;;;;;;;3.40;2.20;;;;;;;;;;5059704;28;20696;-40
2023/07/13 14:45:49;;;;;;;4.15;2.45;;;;;;;;;;5055389;28;20602;-41
2023/07/13 14:48:18;;;;;;;3.67;2.38;;;;;;;;;;5063717;28;20223;-41
2023/07/13 14:50:46;;;;;;;4.88;2.30;;;;;;;;;;5063649;28;20231;-43
2023/07/13 14:53:13;;;;;;;3.13;2.35;;;;;;;;;;5073153;28;20234;-42
2023/07/13 14:55:42;;;;;;;7.72;2.40;;;;;;;;;;5073017;28;20699;-43
2023/07/13 14:58:10;;;;;;;9.63;2.45;;;;;;;;;;5072597;28;20258;-43
2023/07/13 15:00:37;;;;;;;4.90;2.20;;;;;;;;;;5068848;28;20235;-44
2023/07/13 15:03:06;;;;;;;2.17;1.67;;;;;;;;;;5063289;28;20225;-42
2023/07/13 15:05:35;;;;;;;3.60;2.20;;;;;;;;;;5070324;28;20582;-43